sensor_id;sensor_type;location;lat;lon;timestamp;P1;durP1;ratioP1;P2;durP2;ratioP2
56307;SDS011;42217;50.422;7.210;2023-01-01T00:00:56;3.13;;;2.03;;
56307;SDS011;42217;50.422;7.210;2023-01-01T00:03:22;4.85;;;1.98;;
56307;SDS011;42217;50.422;7.210;2023-01-01T00:05:48;2.80;;;2.08;;
56307;SDS011;42217;50.422;7.210;2023-01-01T00:08:14;3.10;;;2.47;;
56307;SDS011;42217;50.422;7.210;2023-01-01T00:10:39;7.05;;;2.72;;
56307;SDS011;42217;50.422;7.210;2023-01-01T00:13:15;3.97;;;2.83;;
56307;SDS011;42217;50.422;7.210;2023-01-01T00:15:41;5.45;;;1.73;;
56307;SDS011;42217;50.422;7.210;2023-01-01T00:18:07;5.47;;;2.72;;
56307;SDS011;42217;50.422;7.210;2023-01-01T00:20:32;5.10;;;2.70;;
56307;SDS011;42217;50.422;7.210;2023-01-01T00:22:58;3.22;;;1.67;;
56307;SDS011;42217;50.422;7.210;2023-01-01T00:25:24;1.95;;;1.58;;
56307;SDS011;42217;50.422;7.210;2023-01-01T00:27:50;2.28;;;1.77;;
56307;SDS011;42217;50.422;7.210;2023-01-01T00:30:16;2.97;;;1.48;;
56307;SDS011;42217;50.422;7.210;2023-01-01T00:32:41;6.68;;;1.80;;
56307;SDS011;42217;50.422;7.210;2023-01-01T00:35:07;2.95;;;1.38;;
56307;SDS011;42217;50.422;7.210;2023-01-01T00:37:33;3.95;;;1.27;;
56307;SDS011;42217;50.422;7.210;2023-01-01T00:39:59;2.22;;;1.77;;
56307;SDS011;42217;50.422;7.210;2023-01-01T00:42:24;2.65;;;1.55;;
56307;SDS011;42217;50.422;7.210;2023-01-01T00:44:50;1.67;;;1.42;;
56307;SDS011;42217;50.422;7.210;2023-01-01T00:47:16;4.30;;;1.70;;
56307;SDS011;42217;50.422;7.210;2023-01-01T00:49:41;2.28;;;1.70;;
56307;SDS011;42217;50.422;7.210;2023-01-01T00:52:07;1.67;;;1.20;;
56307;SDS011;42217;50.422;7.210;2023-01-01T00:54:33;3.45;;;1.85;;
56307;SDS011;42217;50.422;7.210;2023-01-01T00:56:58;3.22;;;1.55;;
56307;SDS011;42217;50.422;7.210;2023-01-01T00:59:24;1.98;;;1.77;;
56307;SDS011;42217;50.422;7.210;2023-01-01T01:01:50;4.93;;;1.85;;
56307;SDS011;42217;50.422;7.210;2023-01-01T01:04:15;2.20;;;1.92;;
56307;SDS011;42217;50.422;7.210;2023-01-01T01:06:41;13.48;;;1.95;;
56307;SDS011;42217;50.422;7.210;2023-01-01T01:09:06;4.30;;;2.13;;
56307;SDS011;42217;50.422;7.210;2023-01-01T01:11:32;4.82;;;1.92;;
56307;SDS011;42217;50.422;7.210;2023-01-01T01:13:58;3.90;;;1.55;;
56307;SDS011;42217;50.422;7.210;2023-01-01T01:16:25;3.03;;;1.33;;
56307;SDS011;42217;50.422;7.210;2023-01-01T01:18:52;3.33;;;1.60;;
56307;SDS011;42217;50.422;7.210;2023-01-01T01:21:20;2.92;;;1.77;;
56307;SDS011;42217;50.422;7.210;2023-01-01T01:23:48;1.92;;;1.40;;
56307;SDS011;42217;50.422;7.210;2023-01-01T01:28:41;2.38;;;1.60;;
56307;SDS011;42217;50.422;7.210;2023-01-01T01:31:07;1.92;;;1.73;;
56307;SDS011;42217;50.422;7.210;2023-01-01T01:33:34;2.50;;;1.50;;
56307;SDS011;42217;50.422;7.210;2023-01-01T01:36:00;2.03;;;1.27;;
56307;SDS011;42217;50.422;7.210;2023-01-01T01:38:27;2.67;;;1.60;;
56307;SDS011;42217;50.422;7.210;2023-01-01T01:40:52;2.78;;;1.50;;
56307;SDS011;42217;50.422;7.210;2023-01-01T01:43:20;2.55;;;1.60;;
56307;SDS011;42217;50.422;7.210;2023-01-01T01:45:47;2.50;;;1.55;;
56307;SDS011;42217;50.422;7.210;2023-01-01T01:48:13;2.95;;;1.50;;
56307;SDS011;42217;50.422;7.210;2023-01-01T01:50:40;3.38;;;1.65;;
56307;SDS011;42217;50.422;7.210;2023-01-01T01:53:32;2.00;;;1.73;;
56307;SDS011;42217;50.422;7.210;2023-01-01T01:56:03;2.22;;;1.40;;
56307;SDS011;42217;50.422;7.210;2023-01-01T01:58:33;1.52;;;1.40;;
56307;SDS011;42217;50.422;7.210;2023-01-01T02:00:59;3.33;;;1.77;;
56307;SDS011;42217;50.422;7.210;2023-01-01T02:05:50;3.28;;;1.60;;
56307;SDS011;42217;50.422;7.210;2023-01-01T02:08:17;3.63;;;1.40;;
56307;SDS011;42217;50.422;7.210;2023-01-01T02:10:44;4.47;;;1.50;;
56307;SDS011;42217;50.422;7.210;2023-01-01T02:13:10;2.27;;;1.87;;
56307;SDS011;42217;50.422;7.210;2023-01-01T02:15:45;4.30;;;1.80;;
56307;SDS011;42217;50.422;7.210;2023-01-01T02:18:31;3.30;;;1.90;;
56307;SDS011;42217;50.422;7.210;2023-01-01T02:34:37;2.58;;;1.73;;
56307;SDS011;42217;50.422;7.210;2023-01-01T02:37:16;4.35;;;1.55;;
56307;SDS011;42217;50.422;7.210;2023-01-01T02:39:49;8.05;;;2.42;;
56307;SDS011;42217;50.422;7.210;2023-01-01T02:42:18;2.85;;;1.70;;
56307;SDS011;42217;50.422;7.210;2023-01-01T02:44:48;2.60;;;1.15;;
56307;SDS011;42217;50.422;7.210;2023-01-01T02:47:18;7.47;;;1.77;;
56307;SDS011;42217;50.422;7.210;2023-01-01T02:54:58;2.00;;;1.40;;
56307;SDS011;42217;50.422;7.210;2023-01-01T02:57:40;3.85;;;1.35;;
56307;SDS011;42217;50.422;7.210;2023-01-01T03:00:14;3.13;;;1.67;;
56307;SDS011;42217;50.422;7.210;2023-01-01T03:08:23;1.30;;;1.20;;
56307;SDS011;42217;50.422;7.210;2023-01-01T03:10:59;1.50;;;1.13;;
56307;SDS011;42217;50.422;7.210;2023-01-01T03:13:39;5.85;;;1.50;;
56307;SDS011;42217;50.422;7.210;2023-01-01T03:16:17;6.28;;;1.42;;
56307;SDS011;42217;50.422;7.210;2023-01-01T03:21:38;1.42;;;1.15;;
56307;SDS011;42217;50.422;7.210;2023-01-01T03:24:28;2.63;;;1.55;;
56307;SDS011;42217;50.422;7.210;2023-01-01T03:26:58;4.35;;;1.60;;
56307;SDS011;42217;50.422;7.210;2023-01-01T03:29:32;2.20;;;1.08;;
56307;SDS011;42217;50.422;7.210;2023-01-01T03:32:01;1.85;;;1.75;;
56307;SDS011;42217;50.422;7.210;2023-01-01T03:34:30;2.33;;;1.17;;
56307;SDS011;42217;50.422;7.210;2023-01-01T03:37:03;2.72;;;1.98;;
56307;SDS011;42217;50.422;7.210;2023-01-01T03:39:37;3.23;;;1.33;;
56307;SDS011;42217;50.422;7.210;2023-01-01T03:45:14;1.13;;;1.02;;
56307;SDS011;42217;50.422;7.210;2023-01-01T03:47:44;2.13;;;1.10;;
56307;SDS011;42217;50.422;7.210;2023-01-01T03:50:10;2.05;;;1.25;;
56307;SDS011;42217;50.422;7.210;2023-01-01T03:52:56;1.25;;;1.00;;
56307;SDS011;42217;50.422;7.210;2023-01-01T03:55:44;2.30;;;1.77;;
56307;SDS011;42217;50.422;7.210;2023-01-01T03:58:25;6.77;;;2.40;;
56307;SDS011;42217;50.422;7.210;2023-01-01T04:01:23;2.27;;;1.40;;
56307;SDS011;42217;50.422;7.210;2023-01-01T04:03:54;3.08;;;1.50;;
56307;SDS011;42217;50.422;7.210;2023-01-01T04:06:21;3.10;;;1.52;;
56307;SDS011;42217;50.422;7.210;2023-01-01T04:08:47;1.50;;;1.05;;
56307;SDS011;42217;50.422;7.210;2023-01-01T04:11:18;1.98;;;1.40;;
56307;SDS011;42217;50.422;7.210;2023-01-01T04:14:05;1.08;;;0.98;;
56307;SDS011;42217;50.422;7.210;2023-01-01T04:16:31;2.57;;;1.40;;
56307;SDS011;42217;50.422;7.210;2023-01-01T04:18:57;3.55;;;1.65;;
56307;SDS011;42217;50.422;7.210;2023-01-01T04:21:22;4.20;;;1.23;;
56307;SDS011;42217;50.422;7.210;2023-01-01T04:23:48;2.15;;;1.67;;
56307;SDS011;42217;50.422;7.210;2023-01-01T04:26:14;1.83;;;1.23;;
56307;SDS011;42217;50.422;7.210;2023-01-01T04:28:40;2.75;;;1.23;;
56307;SDS011;42217;50.422;7.210;2023-01-01T04:31:06;2.47;;;1.40;;
56307;SDS011;42217;50.422;7.210;2023-01-01T04:33:32;1.93;;;1.60;;
56307;SDS011;42217;50.422;7.210;2023-01-01T04:36:02;2.57;;;1.37;;
56307;SDS011;42217;50.422;7.210;2023-01-01T04:38:31;6.53;;;1.83;;
56307;SDS011;42217;50.422;7.210;2023-01-01T04:40:58;2.10;;;1.33;;
56307;SDS011;42217;50.422;7.210;2023-01-01T04:43:24;1.83;;;1.63;;
56307;SDS011;42217;50.422;7.210;2023-01-01T04:45:54;2.47;;;1.43;;
56307;SDS011;42217;50.422;7.210;2023-01-01T04:48:20;1.40;;;1.00;;
56307;SDS011;42217;50.422;7.210;2023-01-01T04:50:52;2.47;;;1.37;;
56307;SDS011;42217;50.422;7.210;2023-01-01T04:53:29;1.75;;;1.13;;
56307;SDS011;42217;50.422;7.210;2023-01-01T04:56:07;1.83;;;1.33;;
56307;SDS011;42217;50.422;7.210;2023-01-01T04:58:38;2.07;;;1.23;;
56307;SDS011;42217;50.422;7.210;2023-01-01T05:01:05;1.47;;;1.27;;
56307;SDS011;42217;50.422;7.210;2023-01-01T05:03:32;3.87;;;1.20;;
56307;SDS011;42217;50.422;7.210;2023-01-01T05:06:05;2.27;;;1.83;;
56307;SDS011;42217;50.422;7.210;2023-01-01T05:08:33;1.80;;;1.70;;
56307;SDS011;42217;50.422;7.210;2023-01-01T05:11:01;2.60;;;1.57;;
56307;SDS011;42217;50.422;7.210;2023-01-01T05:13:28;3.47;;;1.33;;
56307;SDS011;42217;50.422;7.210;2023-01-01T05:15:54;2.63;;;1.20;;
56307;SDS011;42217;50.422;7.210;2023-01-01T05:18:20;1.50;;;0.77;;
56307;SDS011;42217;50.422;7.210;2023-01-01T05:20:46;1.97;;;1.40;;
56307;SDS011;42217;50.422;7.210;2023-01-01T05:23:11;1.63;;;1.20;;
56307;SDS011;42217;50.422;7.210;2023-01-01T05:25:39;1.47;;;1.23;;
56307;SDS011;42217;50.422;7.210;2023-01-01T05:28:04;3.47;;;1.23;;
56307;SDS011;42217;50.422;7.210;2023-01-01T05:30:30;3.30;;;1.80;;
56307;SDS011;42217;50.422;7.210;2023-01-01T05:32:56;1.83;;;1.20;;
56307;SDS011;42217;50.422;7.210;2023-01-01T05:35:21;1.97;;;1.80;;
56307;SDS011;42217;50.422;7.210;2023-01-01T05:37:47;1.70;;;1.37;;
56307;SDS011;42217;50.422;7.210;2023-01-01T05:40:13;2.70;;;1.27;;
56307;SDS011;42217;50.422;7.210;2023-01-01T05:42:38;2.00;;;1.20;;
56307;SDS011;42217;50.422;7.210;2023-01-01T05:45:04;2.97;;;1.53;;
56307;SDS011;42217;50.422;7.210;2023-01-01T05:47:30;1.50;;;1.30;;
56307;SDS011;42217;50.422;7.210;2023-01-01T05:49:56;1.60;;;1.40;;
56307;SDS011;42217;50.422;7.210;2023-01-01T05:52:22;2.17;;;1.23;;
56307;SDS011;42217;50.422;7.210;2023-01-01T05:54:47;3.83;;;1.73;;
56307;SDS011;42217;50.422;7.210;2023-01-01T05:57:13;1.57;;;1.40;;
56307;SDS011;42217;50.422;7.210;2023-01-01T05:59:39;2.30;;;1.30;;
56307;SDS011;42217;50.422;7.210;2023-01-01T06:02:04;5.00;;;1.50;;
56307;SDS011;42217;50.422;7.210;2023-01-01T06:04:30;2.00;;;1.27;;
56307;SDS011;42217;50.422;7.210;2023-01-01T06:06:56;2.63;;;1.40;;
56307;SDS011;42217;50.422;7.210;2023-01-01T06:09:21;2.07;;;1.40;;
56307;SDS011;42217;50.422;7.210;2023-01-01T06:11:47;1.40;;;1.10;;
56307;SDS011;42217;50.422;7.210;2023-01-01T06:14:13;1.63;;;1.43;;
56307;SDS011;42217;50.422;7.210;2023-01-01T06:16:38;3.17;;;1.10;;
56307;SDS011;42217;50.422;7.210;2023-01-01T06:19:04;1.80;;;1.70;;
56307;SDS011;42217;50.422;7.210;2023-01-01T06:21:30;2.07;;;1.53;;
56307;SDS011;42217;50.422;7.210;2023-01-01T06:23:56;3.53;;;1.80;;
56307;SDS011;42217;50.422;7.210;2023-01-01T06:26:24;4.57;;;1.47;;
56307;SDS011;42217;50.422;7.210;2023-01-01T06:28:55;4.75;;;1.20;;
56307;SDS011;42217;50.422;7.210;2023-01-01T06:31:21;2.80;;;1.60;;
56307;SDS011;42217;50.422;7.210;2023-01-01T06:33:48;2.70;;;1.40;;
56307;SDS011;42217;50.422;7.210;2023-01-01T06:36:15;2.30;;;1.17;;
56307;SDS011;42217;50.422;7.210;2023-01-01T06:38:44;1.50;;;1.40;;
56307;SDS011;42217;50.422;7.210;2023-01-01T06:41:12;3.67;;;1.30;;
56307;SDS011;42217;50.422;7.210;2023-01-01T06:43:39;3.03;;;1.63;;
56307;SDS011;42217;50.422;7.210;2023-01-01T06:46:07;2.93;;;1.70;;
56307;SDS011;42217;50.422;7.210;2023-01-01T06:48:40;4.57;;;1.53;;
56307;SDS011;42217;50.422;7.210;2023-01-01T06:51:08;1.93;;;1.33;;
56307;SDS011;42217;50.422;7.210;2023-01-01T06:53:35;1.97;;;1.40;;
56307;SDS011;42217;50.422;7.210;2023-01-01T06:56:01;1.93;;;1.43;;
56307;SDS011;42217;50.422;7.210;2023-01-01T06:58:27;1.30;;;1.20;;
56307;SDS011;42217;50.422;7.210;2023-01-01T07:00:53;1.70;;;1.30;;
56307;SDS011;42217;50.422;7.210;2023-01-01T07:03:19;3.63;;;1.30;;
56307;SDS011;42217;50.422;7.210;2023-01-01T07:05:44;5.73;;;1.90;;
56307;SDS011;42217;50.422;7.210;2023-01-01T07:08:10;2.17;;;1.77;;
56307;SDS011;42217;50.422;7.210;2023-01-01T07:10:36;1.87;;;0.93;;
56307;SDS011;42217;50.422;7.210;2023-01-01T07:13:01;2.27;;;2.03;;
56307;SDS011;42217;50.422;7.210;2023-01-01T07:15:27;1.73;;;1.17;;
56307;SDS011;42217;50.422;7.210;2023-01-01T07:17:53;1.97;;;1.40;;
56307;SDS011;42217;50.422;7.210;2023-01-01T07:20:18;3.33;;;1.20;;
56307;SDS011;42217;50.422;7.210;2023-01-01T07:22:44;2.00;;;1.53;;
56307;SDS011;42217;50.422;7.210;2023-01-01T07:25:11;2.40;;;2.10;;
56307;SDS011;42217;50.422;7.210;2023-01-01T07:27:39;2.50;;;1.30;;
56307;SDS011;42217;50.422;7.210;2023-01-01T07:30:05;3.90;;;1.73;;
56307;SDS011;42217;50.422;7.210;2023-01-01T07:32:31;4.63;;;2.00;;
56307;SDS011;42217;50.422;7.210;2023-01-01T07:35:00;1.60;;;1.50;;
56307;SDS011;42217;50.422;7.210;2023-01-01T07:37:26;3.07;;;1.53;;
56307;SDS011;42217;50.422;7.210;2023-01-01T07:39:52;3.67;;;1.57;;
56307;SDS011;42217;50.422;7.210;2023-01-01T07:42:18;8.53;;;1.63;;
56307;SDS011;42217;50.422;7.210;2023-01-01T07:44:43;1.20;;;1.03;;
56307;SDS011;42217;50.422;7.210;2023-01-01T07:47:23;4.90;;;1.57;;
56307;SDS011;42217;50.422;7.210;2023-01-01T07:49:50;6.40;;;1.67;;
56307;SDS011;42217;50.422;7.210;2023-01-01T07:52:17;1.37;;;1.20;;
56307;SDS011;42217;50.422;7.210;2023-01-01T07:54:43;4.07;;;1.73;;
56307;SDS011;42217;50.422;7.210;2023-01-01T07:57:09;3.50;;;1.50;;
56307;SDS011;42217;50.422;7.210;2023-01-01T07:59:35;1.83;;;1.47;;
56307;SDS011;42217;50.422;7.210;2023-01-01T08:02:02;3.50;;;1.80;;
56307;SDS011;42217;50.422;7.210;2023-01-01T08:04:28;13.80;;;3.40;;
56307;SDS011;42217;50.422;7.210;2023-01-01T08:06:54;3.93;;;1.83;;
56307;SDS011;42217;50.422;7.210;2023-01-01T08:09:20;2.43;;;1.20;;
56307;SDS011;42217;50.422;7.210;2023-01-01T08:11:46;2.43;;;2.00;;
56307;SDS011;42217;50.422;7.210;2023-01-01T08:14:12;3.97;;;2.03;;
56307;SDS011;42217;50.422;7.210;2023-01-01T08:16:38;2.17;;;1.35;;
56307;SDS011;42217;50.422;7.210;2023-01-01T08:19:04;4.05;;;1.80;;
56307;SDS011;42217;50.422;7.210;2023-01-01T08:21:30;2.60;;;1.67;;
56307;SDS011;42217;50.422;7.210;2023-01-01T08:23:56;1.60;;;1.50;;
56307;SDS011;42217;50.422;7.210;2023-01-01T08:26:26;5.50;;;1.30;;
56307;SDS011;42217;50.422;7.210;2023-01-01T08:28:54;4.78;;;2.10;;
56307;SDS011;42217;50.422;7.210;2023-01-01T08:31:20;6.60;;;1.67;;
56307;SDS011;42217;50.422;7.210;2023-01-01T08:33:46;3.43;;;1.50;;
56307;SDS011;42217;50.422;7.210;2023-01-01T08:36:12;3.37;;;1.70;;
56307;SDS011;42217;50.422;7.210;2023-01-01T08:38:40;5.63;;;2.23;;
56307;SDS011;42217;50.422;7.210;2023-01-01T08:41:07;11.10;;;1.57;;
56307;SDS011;42217;50.422;7.210;2023-01-01T08:43:34;1.87;;;1.13;;
56307;SDS011;42217;50.422;7.210;2023-01-01T08:46:00;6.47;;;1.50;;
56307;SDS011;42217;50.422;7.210;2023-01-01T08:48:26;6.70;;;1.50;;
56307;SDS011;42217;50.422;7.210;2023-01-01T08:50:54;1.53;;;1.20;;
56307;SDS011;42217;50.422;7.210;2023-01-01T08:53:24;6.97;;;2.08;;
56307;SDS011;42217;50.422;7.210;2023-01-01T08:55:58;5.20;;;2.28;;
56307;SDS011;42217;50.422;7.210;2023-01-01T08:58:30;2.80;;;1.53;;
56307;SDS011;42217;50.422;7.210;2023-01-01T09:00:59;3.03;;;1.27;;
56307;SDS011;42217;50.422;7.210;2023-01-01T09:03:26;2.70;;;1.57;;
56307;SDS011;42217;50.422;7.210;2023-01-01T09:05:52;2.93;;;1.37;;
56307;SDS011;42217;50.422;7.210;2023-01-01T09:08:19;3.20;;;1.37;;
56307;SDS011;42217;50.422;7.210;2023-01-01T09:10:45;4.03;;;1.45;;
56307;SDS011;42217;50.422;7.210;2023-01-01T09:13:12;2.47;;;1.40;;
56307;SDS011;42217;50.422;7.210;2023-01-01T09:15:40;4.43;;;1.70;;
56307;SDS011;42217;50.422;7.210;2023-01-01T09:18:09;3.30;;;1.65;;
56307;SDS011;42217;50.422;7.210;2023-01-01T09:20:36;4.63;;;1.30;;
56307;SDS011;42217;50.422;7.210;2023-01-01T09:23:02;3.08;;;1.88;;
56307;SDS011;42217;50.422;7.210;2023-01-01T09:25:29;3.95;;;1.85;;
56307;SDS011;42217;50.422;7.210;2023-01-01T09:27:58;1.50;;;1.05;;
56307;SDS011;42217;50.422;7.210;2023-01-01T09:30:25;1.30;;;1.20;;
56307;SDS011;42217;50.422;7.210;2023-01-01T09:32:52;5.05;;;1.20;;
56307;SDS011;42217;50.422;7.210;2023-01-01T09:35:18;5.55;;;1.63;;
56307;SDS011;42217;50.422;7.210;2023-01-01T09:37:44;3.35;;;1.48;;
56307;SDS011;42217;50.422;7.210;2023-01-01T09:49:00;2.45;;;1.48;;
56307;SDS011;42217;50.422;7.210;2023-01-01T09:51:33;9.70;;;2.72;;
56307;SDS011;42217;50.422;7.210;2023-01-01T09:56:58;6.68;;;1.23;;
56307;SDS011;42217;50.422;7.210;2023-01-01T09:59:26;3.40;;;1.40;;
56307;SDS011;42217;50.422;7.210;2023-01-01T10:15:26;3.22;;;1.65;;
56307;SDS011;42217;50.422;7.210;2023-01-01T10:17:57;3.40;;;1.80;;
56307;SDS011;42217;50.422;7.210;2023-01-01T10:20:29;1.63;;;1.00;;
56307;SDS011;42217;50.422;7.210;2023-01-01T10:23:13;3.55;;;1.52;;
56307;SDS011;42217;50.422;7.210;2023-01-01T10:25:45;1.58;;;1.20;;
56307;SDS011;42217;50.422;7.210;2023-01-01T10:31:13;5.05;;;1.50;;
56307;SDS011;42217;50.422;7.210;2023-01-01T10:33:39;4.70;;;1.55;;
56307;SDS011;42217;50.422;7.210;2023-01-01T10:36:06;3.30;;;1.30;;
56307;SDS011;42217;50.422;7.210;2023-01-01T10:38:34;2.63;;;1.27;;
56307;SDS011;42217;50.422;7.210;2023-01-01T10:41:02;2.55;;;1.00;;
56307;SDS011;42217;50.422;7.210;2023-01-01T10:43:32;1.05;;;0.85;;
56307;SDS011;42217;50.422;7.210;2023-01-01T10:45:59;2.58;;;1.30;;
56307;SDS011;42217;50.422;7.210;2023-01-01T10:48:27;3.92;;;1.10;;
56307;SDS011;42217;50.422;7.210;2023-01-01T10:50:57;5.43;;;1.65;;
56307;SDS011;42217;50.422;7.210;2023-01-01T10:53:40;3.35;;;1.55;;
56307;SDS011;42217;50.422;7.210;2023-01-01T10:56:20;3.10;;;1.52;;
56307;SDS011;42217;50.422;7.210;2023-01-01T10:58:52;1.75;;;1.30;;
56307;SDS011;42217;50.422;7.210;2023-01-01T11:01:26;3.67;;;2.08;;
56307;SDS011;42217;50.422;7.210;2023-01-01T11:04:08;4.53;;;1.80;;
56307;SDS011;42217;50.422;7.210;2023-01-01T11:06:44;7.60;;;2.17;;
56307;SDS011;42217;50.422;7.210;2023-01-01T11:09:22;6.45;;;1.60;;
56307;SDS011;42217;50.422;7.210;2023-01-01T11:12:15;2.90;;;0.82;;
56307;SDS011;42217;50.422;7.210;2023-01-01T11:17:33;5.03;;;1.77;;
56307;SDS011;42217;50.422;7.210;2023-01-01T11:20:02;3.05;;;1.33;;
56307;SDS011;42217;50.422;7.210;2023-01-01T11:22:42;2.72;;;1.30;;
56307;SDS011;42217;50.422;7.210;2023-01-01T11:25:24;2.58;;;1.60;;
56307;SDS011;42217;50.422;7.210;2023-01-01T11:28:12;2.72;;;1.90;;
56307;SDS011;42217;50.422;7.210;2023-01-01T11:31:02;6.95;;;1.20;;
56307;SDS011;42217;50.422;7.210;2023-01-01T11:33:37;5.10;;;1.58;;
56307;SDS011;42217;50.422;7.210;2023-01-01T11:36:24;4.55;;;1.38;;
56307;SDS011;42217;50.422;7.210;2023-01-01T11:39:07;2.47;;;1.20;;
56307;SDS011;42217;50.422;7.210;2023-01-01T11:41:54;4.85;;;1.60;;
56307;SDS011;42217;50.422;7.210;2023-01-01T11:50:50;3.08;;;1.65;;
56307;SDS011;42217;50.422;7.210;2023-01-01T12:01:51;3.22;;;1.50;;
56307;SDS011;42217;50.422;7.210;2023-01-01T12:09:41;7.45;;;1.83;;
56307;SDS011;42217;50.422;7.210;2023-01-01T12:15:04;8.05;;;1.33;;
56307;SDS011;42217;50.422;7.210;2023-01-01T12:17:58;4.03;;;1.80;;
56307;SDS011;42217;50.422;7.210;2023-01-01T12:20:26;2.90;;;1.60;;
56307;SDS011;42217;50.422;7.210;2023-01-01T12:22:56;1.83;;;1.35;;
56307;SDS011;42217;50.422;7.210;2023-01-01T12:25:27;2.35;;;1.48;;
56307;SDS011;42217;50.422;7.210;2023-01-01T12:28:14;3.00;;;1.30;;
56307;SDS011;42217;50.422;7.210;2023-01-01T12:34:18;9.77;;;1.92;;
56307;SDS011;42217;50.422;7.210;2023-01-01T12:36:55;3.55;;;1.67;;
56307;SDS011;42217;50.422;7.210;2023-01-01T12:45:06;8.20;;;3.67;;
56307;SDS011;42217;50.422;7.210;2023-01-01T12:48:02;3.30;;;1.63;;
56307;SDS011;42217;50.422;7.210;2023-01-01T12:51:00;4.32;;;2.13;;
56307;SDS011;42217;50.422;7.210;2023-01-01T12:56:33;5.68;;;2.20;;
56307;SDS011;42217;50.422;7.210;2023-01-01T12:59:05;2.83;;;1.92;;
56307;SDS011;42217;50.422;7.210;2023-01-01T13:01:36;2.13;;;1.30;;
56307;SDS011;42217;50.422;7.210;2023-01-01T13:04:08;1.73;;;1.50;;
56307;SDS011;42217;50.422;7.210;2023-01-01T13:09:14;2.95;;;1.55;;
56307;SDS011;42217;50.422;7.210;2023-01-01T13:11:50;5.90;;;2.17;;
56307;SDS011;42217;50.422;7.210;2023-01-01T13:14:21;10.23;;;3.40;;
56307;SDS011;42217;50.422;7.210;2023-01-01T13:16:49;8.23;;;3.05;;
56307;SDS011;42217;50.422;7.210;2023-01-01T13:19:23;4.25;;;1.95;;
56307;SDS011;42217;50.422;7.210;2023-01-01T13:21:51;16.25;;;6.00;;
56307;SDS011;42217;50.422;7.210;2023-01-01T13:24:18;9.30;;;3.25;;
56307;SDS011;42217;50.422;7.210;2023-01-01T13:26:46;7.15;;;2.25;;
56307;SDS011;42217;50.422;7.210;2023-01-01T13:37:29;8.13;;;1.80;;
56307;SDS011;42217;50.422;7.210;2023-01-01T13:40:29;3.65;;;1.55;;
56307;SDS011;42217;50.422;7.210;2023-01-01T13:43:18;1.05;;;0.82;;
56307;SDS011;42217;50.422;7.210;2023-01-01T13:45:49;4.60;;;1.92;;
56307;SDS011;42217;50.422;7.210;2023-01-01T13:56:25;3.35;;;1.50;;
56307;SDS011;42217;50.422;7.210;2023-01-01T13:59:15;2.53;;;1.13;;
56307;SDS011;42217;50.422;7.210;2023-01-01T14:02:39;2.53;;;1.45;;
56307;SDS011;42217;50.422;7.210;2023-01-01T14:04:56;5.05;;;1.30;;
56307;SDS011;42217;50.422;7.210;2023-01-01T14:07:28;4.70;;;2.15;;
56307;SDS011;42217;50.422;7.210;2023-01-01T14:12:43;6.97;;;1.65;;
56307;SDS011;42217;50.422;7.210;2023-01-01T14:18:03;4.07;;;1.73;;
56307;SDS011;42217;50.422;7.210;2023-01-01T14:20:52;2.70;;;1.60;;
56307;SDS011;42217;50.422;7.210;2023-01-01T14:23:20;4.45;;;1.67;;
56307;SDS011;42217;50.422;7.210;2023-01-01T14:35:12;4.30;;;2.00;;
56307;SDS011;42217;50.422;7.210;2023-01-01T14:37:39;5.35;;;1.77;;
56307;SDS011;42217;50.422;7.210;2023-01-01T14:42:51;6.30;;;1.95;;
56307;SDS011;42217;50.422;7.210;2023-01-01T14:45:34;4.05;;;1.73;;
56307;SDS011;42217;50.422;7.210;2023-01-01T14:48:03;5.88;;;1.80;;
56307;SDS011;42217;50.422;7.210;2023-01-01T14:50:31;5.32;;;2.15;;
56307;SDS011;42217;50.422;7.210;2023-01-01T14:53:01;7.00;;;1.80;;
56307;SDS011;42217;50.422;7.210;2023-01-01T15:14:43;3.58;;;2.50;;
56307;SDS011;42217;50.422;7.210;2023-01-01T15:17:12;3.85;;;2.67;;
56307;SDS011;42217;50.422;7.210;2023-01-01T15:19:41;6.68;;;2.20;;
56307;SDS011;42217;50.422;7.210;2023-01-01T15:22:10;4.97;;;2.17;;
56307;SDS011;42217;50.422;7.210;2023-01-01T15:25:09;4.75;;;2.05;;
56307;SDS011;42217;50.422;7.210;2023-01-01T15:27:37;6.70;;;2.85;;
56307;SDS011;42217;50.422;7.210;2023-01-01T15:30:04;3.53;;;1.50;;
56307;SDS011;42217;50.422;7.210;2023-01-01T15:32:32;2.58;;;1.40;;
56307;SDS011;42217;50.422;7.210;2023-01-01T15:44:07;3.63;;;2.10;;
56307;SDS011;42217;50.422;7.210;2023-01-01T16:10:13;5.63;;;3.45;;
56307;SDS011;42217;50.422;7.210;2023-01-01T16:12:43;5.33;;;2.60;;
56307;SDS011;42217;50.422;7.210;2023-01-01T16:15:13;13.57;;;5.38;;
56307;SDS011;42217;50.422;7.210;2023-01-01T16:17:39;5.97;;;2.47;;
56307;SDS011;42217;50.422;7.210;2023-01-01T16:20:05;6.30;;;2.80;;
56307;SDS011;42217;50.422;7.210;2023-01-01T16:22:33;9.10;;;2.70;;
56307;SDS011;42217;50.422;7.210;2023-01-01T16:25:07;5.83;;;2.90;;
56307;SDS011;42217;50.422;7.210;2023-01-01T16:27:40;6.33;;;2.97;;
56307;SDS011;42217;50.422;7.210;2023-01-01T16:30:09;4.40;;;2.33;;
56307;SDS011;42217;50.422;7.210;2023-01-01T16:32:36;7.90;;;2.40;;
56307;SDS011;42217;50.422;7.210;2023-01-01T16:36:10;11.18;;;2.38;;
56307;SDS011;42217;50.422;7.210;2023-01-01T16:42:51;6.35;;;2.85;;
56307;SDS011;42217;50.422;7.210;2023-01-01T16:45:16;4.50;;;2.67;;
56307;SDS011;42217;50.422;7.210;2023-01-01T16:47:43;4.70;;;2.47;;
56307;SDS011;42217;50.422;7.210;2023-01-01T16:50:10;6.30;;;3.47;;
56307;SDS011;42217;50.422;7.210;2023-01-01T16:52:39;5.10;;;2.60;;
56307;SDS011;42217;50.422;7.210;2023-01-01T16:55:06;6.83;;;2.97;;
56307;SDS011;42217;50.422;7.210;2023-01-01T16:57:33;7.17;;;2.73;;
56307;SDS011;42217;50.422;7.210;2023-01-01T17:02:33;6.60;;;2.70;;
56307;SDS011;42217;50.422;7.210;2023-01-01T17:05:28;4.30;;;2.87;;
56307;SDS011;42217;50.422;7.210;2023-01-01T17:07:56;6.50;;;2.87;;
56307;SDS011;42217;50.422;7.210;2023-01-01T17:10:33;8.67;;;3.17;;
56307;SDS011;42217;50.422;7.210;2023-01-01T17:13:06;5.77;;;3.17;;
56307;SDS011;42217;50.422;7.210;2023-01-01T17:15:36;11.47;;;3.23;;
56307;SDS011;42217;50.422;7.210;2023-01-01T17:18:06;8.03;;;4.23;;
56307;SDS011;42217;50.422;7.210;2023-01-01T17:20:47;7.57;;;3.55;;
56307;SDS011;42217;50.422;7.210;2023-01-01T17:23:13;6.70;;;3.60;;
56307;SDS011;42217;50.422;7.210;2023-01-01T17:25:40;8.20;;;3.67;;
56307;SDS011;42217;50.422;7.210;2023-01-01T17:28:07;5.27;;;2.97;;
56307;SDS011;42217;50.422;7.210;2023-01-01T17:30:34;6.30;;;3.57;;
56307;SDS011;42217;50.422;7.210;2023-01-01T17:33:02;6.57;;;3.57;;
56307;SDS011;42217;50.422;7.210;2023-01-01T17:35:29;9.43;;;3.47;;
56307;SDS011;42217;50.422;7.210;2023-01-01T17:38:03;7.95;;;3.75;;
56307;SDS011;42217;50.422;7.210;2023-01-01T17:40:30;9.50;;;3.27;;
56307;SDS011;42217;50.422;7.210;2023-01-01T17:42:58;5.97;;;3.30;;
56307;SDS011;42217;50.422;7.210;2023-01-01T17:45:25;4.97;;;2.83;;
56307;SDS011;42217;50.422;7.210;2023-01-01T17:47:53;10.97;;;3.97;;
56307;SDS011;42217;50.422;7.210;2023-01-01T17:50:21;4.40;;;2.33;;
56307;SDS011;42217;50.422;7.210;2023-01-01T17:52:50;9.67;;;3.03;;
56307;SDS011;42217;50.422;7.210;2023-01-01T17:55:17;7.30;;;3.63;;
56307;SDS011;42217;50.422;7.210;2023-01-01T17:57:43;5.87;;;2.30;;
56307;SDS011;42217;50.422;7.210;2023-01-01T18:00:09;5.20;;;3.33;;
56307;SDS011;42217;50.422;7.210;2023-01-01T18:02:46;5.83;;;3.23;;
56307;SDS011;42217;50.422;7.210;2023-01-01T18:05:13;8.73;;;4.37;;
56307;SDS011;42217;50.422;7.210;2023-01-01T18:07:50;10.70;;;3.37;;
56307;SDS011;42217;50.422;7.210;2023-01-01T18:10:32;10.53;;;4.10;;
56307;SDS011;42217;50.422;7.210;2023-01-01T18:13:03;5.17;;;3.60;;
56307;SDS011;42217;50.422;7.210;2023-01-01T18:15:49;7.27;;;3.77;;
56307;SDS011;42217;50.422;7.210;2023-01-01T18:18:15;5.07;;;3.47;;
56307;SDS011;42217;50.422;7.210;2023-01-01T18:20:45;3.97;;;3.13;;
56307;SDS011;42217;50.422;7.210;2023-01-01T18:23:11;10.27;;;3.90;;